Time;durP1;ratioP1;P1;durP2;ratioP2;P2;SDS_P1;SDS_P2;PMS_P1;PMS_P2;Temp;Humidity;BMP_temperature;BMP_pressure;BME280_temperature;BME280_humidity;BME280_pressure;Samples;Min_cycle;Max_cycle;Signal;HPM_P1;HPM_P2
2022/02/14 00:02:21;;;;;;;14.60;4.75;;;9.00;99.90;;;;;;5039301;28;20709;-69
2022/02/14 00:04:47;;;;;;;10.75;5.22;;;9.00;99.90;;;;;;5043498;28;20557;-70
2022/02/14 00:07:13;;;;;;;9.75;4.88;;;9.00;99.90;;;;;;5026691;28;20045;-68
2022/02/14 00:09:39;;;;;;;11.82;4.97;;;9.00;99.90;;;;;;5045198;28;20510;-69
2022/02/14 00:12:06;;;;;;;10.07;4.93;;;9.10;99.90;;;;;;5044006;28;20053;-69
2022/02/14 00:14:32;;;;;;;9.93;5.55;;;9.00;99.90;;;;;;5024823;28;20516;-69
2022/02/14 00:16:58;;;;;;;8.20;4.70;;;9.00;99.90;;;;;;5024649;28;20177;-69
2022/02/14 00:19:24;;;;;;;10.57;4.53;;;9.00;99.90;;;;;;5043947;28;20077;-62
2022/02/14 00:21:51;;;;;;;8.60;5.28;;;8.90;99.90;;;;;;5044197;28;20526;-61
2022/02/14 00:24:17;;;;;;;11.40;5.85;;;8.90;99.90;;;;;;5044306;28;20486;-62
2022/02/14 00:26:43;;;;;;;8.88;5.60;;;8.90;99.90;;;;;;5045254;28;20127;-62
2022/02/14 00:29:09;;;;;;;7.47;5.18;;;8.90;99.90;;;;;;5027974;28;20255;-62
2022/02/14 00:31:35;;;;;;;9.43;5.15;;;8.90;99.90;;;;;;5011476;28;20057;-61
2022/02/14 00:34:02;;;;;;;9.40;4.82;;;8.90;99.90;;;;;;5042888;28;20044;-61
2022/02/14 00:36:28;;;;;;;12.52;5.03;;;8.90;99.90;;;;;;5045301;28;20444;-61
2022/02/14 00:38:55;;;;;;;9.38;5.13;;;9.00;99.90;;;;;;4995270;28;20041;-61
2022/02/14 00:41:21;;;;;;;10.02;4.97;;;8.90;99.90;;;;;;5043346;28;20475;-61
2022/02/14 00:43:48;;;;;;;9.75;4.97;;;8.90;99.90;;;;;;5044442;28;20060;-69
2022/02/14 00:46:14;;;;;;;9.88;4.85;;;8.90;99.90;;;;;;5027356;28;20060;-61
2022/02/14 00:48:40;;;;;;;9.70;4.78;;;8.90;99.90;;;;;;5044286;28;20047;-69
2022/02/14 00:51:06;;;;;;;10.80;5.00;;;8.90;99.90;;;;;;5009838;28;20508;-69
2022/02/14 00:53:32;;;;;;;12.00;5.13;;;9.00;99.90;;;;;;5026837;28;20040;-69
2022/02/14 00:55:59;;;;;;;10.98;4.78;;;9.00;99.90;;;;;;5042392;28;20053;-68
2022/02/14 00:58:26;;;;;;;8.88;4.60;;;9.10;99.90;;;;;;5042647;28;20049;-69
2022/02/14 01:00:54;;;;;;;9.35;4.65;;;9.10;99.90;;;;;;5025675;28;20060;-69
2022/02/14 01:03:20;;;;;;;10.00;4.95;;;9.10;99.90;;;;;;5043528;28;20041;-69
2022/02/14 01:05:47;;;;;;;9.77;4.80;;;9.10;99.90;;;;;;5043769;28;20495;-61
2022/02/14 01:08:13;;;;;;;11.10;5.25;;;9.00;99.90;;;;;;5027075;28;20052;-68
2022/02/14 01:10:40;;;;;;;14.80;5.60;;;8.90;99.90;;;;;;5045106;28;20048;-69
2022/02/14 01:13:06;;;;;;;7.82;3.95;;;8.90;99.90;;;;;;5044575;28;20377;-69
2022/02/14 01:15:32;;;;;;;10.25;4.63;;;8.90;99.90;;;;;;5041254;28;20045;-69
2022/02/14 01:17:59;;;;;;;6.78;4.38;;;8.90;99.90;;;;;;5045389;28;20041;-68
2022/02/14 01:20:25;;;;;;;8.10;4.40;;;8.80;99.90;;;;;;5043053;28;20052;-69
2022/02/14 01:22:51;;;;;;;8.65;4.10;;;8.90;99.90;;;;;;5044156;28;20057;-69
2022/02/14 01:25:17;;;;;;;8.20;4.85;;;8.80;99.90;;;;;;5043296;28;20472;-68
2022/02/14 01:27:43;;;;;;;7.38;4.50;;;8.80;99.90;;;;;;5042355;28;20404;-68
2022/02/14 01:30:10;;;;;;;9.55;4.57;;;8.80;99.90;;;;;;5043042;28;20053;-69
2022/02/14 01:32:37;;;;;;;8.15;4.90;;;8.80;99.90;;;;;;5025666;28;20049;-62
2022/02/14 01:35:04;;;;;;;9.68;5.00;;;8.70;99.90;;;;;;5041933;28;20072;-61
2022/02/14 01:37:32;;;;;;;7.93;5.05;;;8.80;99.90;;;;;;5043442;28;20053;-62
2022/02/14 01:39:59;;;;;;;10.30;4.72;;;8.80;99.90;;;;;;5044254;28;20125;-61
2022/02/14 01:42:25;;;;;;;8.13;4.47;;;8.80;99.90;;;;;;5043582;28;20049;-61
2022/02/14 01:44:54;;;;;;;8.07;4.57;;;8.80;99.90;;;;;;5043526;28;20053;-68
2022/02/14 01:47:23;;;;;;;9.68;4.38;;;9.00;99.90;;;;;;5042820;28;20083;-61
2022/02/14 01:49:50;;;;;;;12.27;5.38;;;9.00;99.90;;;;;;5044188;28;20045;-61
2022/02/14 01:52:17;;;;;;;9.90;4.55;;;9.10;99.90;;;;;;5024930;28;20507;-62
2022/02/14 01:54:45;;;;;;;8.23;4.03;;;9.10;99.90;;;;;;5039730;28;20048;-61
2022/02/14 01:57:13;;;;;;;12.50;5.65;;;9.00;99.90;;;;;;5039977;28;20461;-61
2022/02/14 01:59:41;;;;;;;8.02;4.30;;;9.00;99.90;;;;;;5039615;28;20045;-61
2022/02/14 02:02:08;;;;;;;8.25;4.45;;;8.90;99.90;;;;;;5043070;28;20504;-69
2022/02/14 02:04:35;;;;;;;10.65;5.50;;;8.90;99.90;;;;;;5024161;28;20057;-61
2022/02/14 02:07:05;;;;;;;9.00;4.75;;;8.90;99.90;;;;;;5025237;28;20061;-62
2022/02/14 02:09:31;;;;;;;9.50;5.10;;;8.90;99.90;;;;;;5041586;28;20052;-69
2022/02/14 02:14:42;;;;;;;9.27;4.50;;;8.80;99.90;;;;;;5040748;28;20151;-61
2022/02/14 02:17:09;;;;;;;9.13;4.82;;;8.80;99.90;;;;;;5040932;28;20048;-62
2022/02/14 02:19:35;;;;;;;9.48;5.25;;;8.90;99.90;;;;;;5042158;28;20037;-61
2022/02/14 02:22:01;;;;;;;7.75;4.10;;;8.90;99.90;;;;;;5041323;28;20060;-62
2022/02/14 02:24:27;;;;;;;7.75;4.35;;;8.90;99.90;;;;;;5007069;28;20412;-61
2022/02/14 02:27:03;;;;;;;13.02;4.45;;;8.90;99.90;;;;;;5039868;28;20052;-61
2022/02/14 02:29:29;;;;;;;7.03;4.32;;;9.00;99.90;;;;;;5025727;28;20048;-61
2022/02/14 02:31:57;;;;;;;12.90;4.60;;;9.10;99.90;;;;;;5024099;28;20056;-62
2022/02/14 02:34:23;;;;;;;15.05;4.63;;;9.10;99.90;;;;;;5039901;28;20148;-68
2022/02/14 02:36:55;;;;;;;10.98;4.50;;;9.10;99.90;;;;;;5040448;28;20033;-68
2022/02/14 02:39:22;;;;;;;7.55;3.92;;;9.10;99.90;;;;;;5033751;28;20051;-68
2022/02/14 02:41:49;;;;;;;8.20;4.90;;;9.00;99.90;;;;;;5041371;28;20473;-68
2022/02/14 02:44:17;;;;;;;11.27;4.22;;;9.00;99.90;;;;;;5041476;28;20055;-68
2022/02/14 02:46:43;;;;;;;10.15;4.50;;;9.00;99.90;;;;;;5042666;28;20041;-68
2022/02/14 02:49:13;;;;;;;11.95;4.43;;;9.00;99.90;;;;;;5042304;28;20721;-68
2022/02/14 02:51:41;;;;;;;11.45;5.10;;;8.90;99.90;;;;;;5041396;28;20531;-68
2022/02/14 02:54:08;;;;;;;8.98;4.65;;;9.00;99.90;;;;;;5040445;28;20507;-61
2022/02/14 02:56:35;;;;;;;7.55;3.85;;;8.90;99.90;;;;;;5044129;28;20056;-61
2022/02/14 02:59:02;;;;;;;6.57;4.25;;;8.90;99.90;;;;;;5041896;28;20056;-61
2022/02/14 03:01:28;;;;;;;9.93;5.22;;;8.90;99.90;;;;;;5025162;28;20049;-69
2022/02/14 03:03:54;;;;;;;9.48;4.47;;;8.90;99.90;;;;;;5041175;28;20045;-68
2022/02/14 03:06:22;;;;;;;9.48;4.68;;;8.90;99.90;;;;;;5043389;28;20607;-68
2022/02/14 03:08:49;;;;;;;10.35;4.10;;;9.00;99.90;;;;;;5043197;28;20124;-69
2022/02/14 03:11:16;;;;;;;8.07;4.57;;;9.10;99.90;;;;;;5043090;28;20057;-68
2022/02/14 03:13:43;;;;;;;7.07;3.72;;;9.10;99.90;;;;;;5025740;28;20053;-61
2022/02/14 03:16:10;;;;;;;7.88;4.50;;;9.10;99.90;;;;;;5042247;28;20538;-61
2022/02/14 03:18:37;;;;;;;7.68;4.00;;;9.20;99.90;;;;;;5041808;28;20048;-68
2022/02/14 03:21:04;;;;;;;10.05;4.18;;;9.10;99.90;;;;;;5008839;28;20045;-61
2022/02/14 03:23:31;;;;;;;11.23;4.82;;;9.20;99.90;;;;;;5042962;28;20098;-61
2022/02/14 03:25:57;;;;;;;8.30;4.25;;;9.20;99.90;;;;;;5041351;28;20136;-61
2022/02/14 03:28:23;;;;;;;11.23;4.47;;;9.20;99.90;;;;;;5041579;28;20136;-68
2022/02/14 03:30:49;;;;;;;8.57;4.30;;;9.30;99.90;;;;;;5042797;28;20380;-61
2022/02/14 03:33:15;;;;;;;8.70;4.63;;;9.30;99.90;;;;;;5040748;28;20057;-68
2022/02/14 03:35:42;;;;;;;14.82;4.32;;;9.30;99.90;;;;;;4992207;28;20072;-61
2022/02/14 03:38:08;;;;;;;8.95;4.65;;;9.30;99.90;;;;;;5042726;28;20080;-61
2022/02/14 03:40:35;;;;;;;11.07;4.65;;;9.40;99.90;;;;;;5024592;28;20059;-68
2022/02/14 03:43:01;;;;;;;13.43;4.25;;;9.40;99.90;;;;;;5042507;28;20131;-68
2022/02/14 03:45:29;;;;;;;7.80;4.00;;;9.40;99.90;;;;;;5040844;28;20051;-68
2022/02/14 03:47:55;;;;;;;9.18;4.50;;;9.40;99.90;;;;;;5042975;28;20602;-61
2022/02/14 03:50:22;;;;;;;10.20;4.20;;;9.40;99.90;;;;;;5039932;28;20501;-60
2022/02/14 03:52:48;;;;;;;8.70;4.55;;;9.40;99.90;;;;;;5041256;28;20393;-61
2022/02/14 03:55:14;;;;;;;8.85;4.07;;;9.50;99.90;;;;;;5041129;28;20055;-61
2022/02/14 03:57:42;;;;;;;9.52;4.40;;;9.40;99.90;;;;;;5024303;28;20053;-61
2022/02/14 04:00:10;;;;;;;10.90;4.25;;;9.40;99.90;;;;;;5042408;28;20049;-60
2022/02/14 04:02:41;;;;;;;9.25;4.28;;;9.40;99.90;;;;;;5023359;28;20303;-61
2022/02/14 04:05:11;;;;;;;8.52;3.88;;;9.40;99.90;;;;;;5032683;28;20122;-62
2022/02/14 04:07:38;;;;;;;8.63;4.25;;;9.30;99.90;;;;;;5039494;28;20782;-61
2022/02/14 04:10:06;;;;;;;9.85;3.70;;;9.30;99.90;;;;;;5041147;28;20291;-68
2022/02/14 04:12:32;;;;;;;10.80;3.97;;;9.30;99.90;;;;;;5040722;28;20045;-68
2022/02/14 04:14:58;;;;;;;6.65;3.17;;;9.40;99.90;;;;;;5040937;28;20311;-68
2022/02/14 04:17:25;;;;;;;7.45;3.10;;;9.40;99.90;;;;;;5020502;28;20132;-68
2022/02/14 04:19:52;;;;;;;8.35;3.72;;;9.40;99.90;;;;;;5040761;28;20149;-68
2022/02/14 04:22:18;;;;;;;7.07;3.58;;;9.50;99.90;;;;;;5022943;28;20102;-68
2022/02/14 04:24:45;;;;;;;8.63;3.92;;;9.60;99.90;;;;;;5040340;28;20049;-68
2022/02/14 04:27:11;;;;;;;7.95;4.03;;;9.60;99.90;;;;;;5038041;28;20080;-68
2022/02/14 04:29:37;;;;;;;8.57;3.50;;;9.70;99.90;;;;;;5041189;28;20790;-60
2022/02/14 04:32:04;;;;;;;6.70;3.58;;;9.80;99.90;;;;;;5039540;28;20511;-68
2022/02/14 04:34:30;;;;;;;7.55;3.53;;;9.70;99.90;;;;;;5040859;28;20053;-68
2022/02/14 04:36:57;;;;;;;7.28;3.33;;;9.70;99.90;;;;;;5007266;28;20408;-68
2022/02/14 04:39:23;;;;;;;8.80;3.67;;;9.70;99.90;;;;;;5005208;28;20056;-68
2022/02/14 04:41:49;;;;;;;9.35;3.65;;;9.70;99.90;;;;;;5038465;28;20750;-68
2022/02/14 04:44:15;;;;;;;7.53;3.58;;;9.80;99.90;;;;;;5040668;28;20060;-61
2022/02/14 04:46:42;;;;;;;4.68;3.22;;;9.80;99.90;;;;;;5040264;28;20044;-61
2022/02/14 04:49:09;;;;;;;9.10;3.67;;;9.70;99.90;;;;;;5041202;28;20081;-61
2022/02/14 04:51:35;;;;;;;10.40;3.80;;;9.70;99.90;;;;;;5043718;28;20119;-68
2022/02/14 04:54:02;;;;;;;11.50;3.50;;;9.70;99.90;;;;;;5005005;28;20049;-69
2022/02/14 04:56:29;;;;;;;8.05;3.50;;;9.70;99.90;;;;;;5042253;28;20041;-68
2022/02/14 04:58:55;;;;;;;8.43;3.70;;;9.70;99.90;;;;;;5041859;28;20540;-68
2022/02/14 05:01:21;;;;;;;10.35;3.72;;;9.70;99.90;;;;;;5042765;28;20063;-68
2022/02/14 05:03:47;;;;;;;7.20;3.17;;;9.70;99.90;;;;;;5041960;28;20048;-68
2022/02/14 05:06:14;;;;;;;8.73;3.92;;;9.80;99.90;;;;;;5042476;28;20136;-68
2022/02/14 05:08:40;;;;;;;7.25;3.50;;;9.80;99.90;;;;;;5040813;28;20053;-68
2022/02/14 05:11:07;;;;;;;10.32;3.40;;;9.90;99.90;;;;;;5043132;28;20123;-69
2022/02/14 05:13:33;;;;;;;7.30;3.25;;;9.80;99.90;;;;;;5042293;28;20531;-68
2022/02/14 05:16:00;;;;;;;9.48;3.80;;;9.90;99.90;;;;;;5025700;28;20040;-61
2022/02/14 05:18:26;;;;;;;7.72;3.33;;;9.90;99.90;;;;;;5009785;28;20184;-61
2022/02/14 05:20:52;;;;;;;9.73;3.83;;;9.90;99.90;;;;;;5059565;28;20410;-61
2022/02/14 05:23:18;;;;;;;13.13;3.78;;;9.90;99.90;;;;;;5042587;28;20051;-60
2022/02/14 05:25:44;;;;;;;10.45;4.22;;;9.90;99.90;;;;;;5039734;28;20072;-61
2022/02/14 05:28:11;;;;;;;5.30;3.05;;;9.80;99.90;;;;;;5023242;28;20053;-61
2022/02/14 05:30:38;;;;;;;9.70;4.03;;;9.90;99.90;;;;;;5040560;28;20103;-61
2022/02/14 05:33:05;;;;;;;7.68;3.25;;;9.90;99.90;;;;;;5008093;28;20053;-61
2022/02/14 05:35:32;;;;;;;6.97;3.22;;;9.80;99.90;;;;;;5041438;28;20128;-61
2022/02/14 05:37:58;;;;;;;12.73;4.13;;;9.90;99.90;;;;;;5039251;28;20040;-61
2022/02/14 05:40:24;;;;;;;8.43;3.40;;;9.90;99.90;;;;;;5023126;28;20052;-60
2022/02/14 05:42:50;;;;;;;10.52;3.15;;;9.90;99.90;;;;;;5009401;28;20118;-62
2022/02/14 05:45:19;;;;;;;9.27;3.65;;;9.90;99.90;;;;;;5004258;28;20079;-61
2022/02/14 05:47:45;;;;;;;6.35;3.05;;;9.90;99.90;;;;;;5026123;28;20047;-61
2022/02/14 05:50:12;;;;;;;6.22;3.17;;;9.90;99.90;;;;;;5000412;28;20325;-69
2022/02/14 05:52:44;;;;;;;10.52;3.03;;;10.00;99.90;;;;;;5044413;28;20349;-68
2022/02/14 05:55:11;;;;;;;10.88;3.33;;;10.00;99.90;;;;;;5042903;28;20045;-61
2022/02/14 05:57:37;;;;;;;11.05;3.25;;;10.00;99.90;;;;;;5043723;28;20451;-69
2022/02/14 06:00:06;;;;;;;6.88;2.95;;;10.00;99.90;;;;;;5055479;28;20040;-69
2022/02/14 06:02:32;;;;;;;8.45;3.65;;;10.00;99.90;;;;;;5043527;28;20048;-68
2022/02/14 06:04:58;;;;;;;7.45;3.20;;;10.00;99.90;;;;;;5040999;28;20048;-69
2022/02/14 06:07:24;;;;;;;6.85;3.20;;;9.90;99.90;;;;;;5037084;28;20040;-69
2022/02/14 06:09:50;;;;;;;7.03;2.85;;;10.00;99.90;;;;;;5036488;28;20049;-69
2022/02/14 06:12:16;;;;;;;6.00;2.67;;;10.00;99.90;;;;;;5053658;28;20099;-69
2022/02/14 06:14:42;;;;;;;9.43;3.10;;;10.00;99.90;;;;;;5039338;28;20052;-69
2022/02/14 06:17:08;;;;;;;7.07;2.80;;;9.90;99.90;;;;;;5043083;28;20045;-69
2022/02/14 06:19:34;;;;;;;6.05;2.75;;;9.90;99.90;;;;;;5025079;28;20237;-62
2022/02/14 06:22:00;;;;;;;5.95;2.80;;;10.00;99.90;;;;;;5037136;28;20056;-61
2022/02/14 06:24:27;;;;;;;7.82;2.72;;;9.90;99.90;;;;;;5036460;28;20052;-61
2022/02/14 06:26:53;;;;;;;7.38;3.20;;;10.00;99.90;;;;;;5039023;28;20382;-61
2022/02/14 06:29:19;;;;;;;6.05;3.00;;;10.00;99.90;;;;;;5038930;28;20091;-61
2022/02/14 06:31:45;;;;;;;6.03;2.85;;;10.00;99.90;;;;;;5042218;28;20128;-61
2022/02/14 06:34:11;;;;;;;10.02;2.90;;;10.00;99.90;;;;;;5039944;28;20459;-68
2022/02/14 06:36:37;;;;;;;5.30;2.88;;;10.00;99.90;;;;;;5002795;28;20132;-69
2022/02/14 06:39:04;;;;;;;9.23;2.90;;;10.00;99.90;;;;;;5020538;28;20094;-61
2022/02/14 06:41:30;;;;;;;6.60;3.10;;;10.00;99.90;;;;;;5039291;28;20508;-61
2022/02/14 06:43:57;;;;;;;8.30;3.00;;;10.00;99.90;;;;;;5035388;28;20412;-61
2022/02/14 06:46:23;;;;;;;6.93;3.00;;;10.00;99.90;;;;;;5050516;28;20602;-61
2022/02/14 06:48:50;;;;;;;5.57;2.65;;;10.00;99.90;;;;;;5032361;28;20041;-68
2022/02/14 06:51:20;;;;;;;5.40;2.67;;;10.00;99.90;;;;;;5029388;28;20053;-69
2022/02/14 06:53:47;;;;;;;8.95;3.33;;;10.00;99.90;;;;;;5035730;28;20045;-69
2022/02/14 06:56:13;;;;;;;7.03;2.90;;;9.90;99.90;;;;;;5037959;28;20056;-69
2022/02/14 06:58:41;;;;;;;8.57;3.05;;;10.00;99.90;;;;;;5018937;28;20045;-62
2022/02/14 07:01:07;;;;;;;6.20;2.85;;;9.90;99.90;;;;;;5033509;28;20042;-62
2022/02/14 07:03:34;;;;;;;4.95;2.80;;;10.00;99.90;;;;;;5035255;28;20041;-62
2022/02/14 07:06:01;;;;;;;6.22;2.85;;;10.00;99.90;;;;;;5019874;28;20139;-62
2022/02/14 07:08:27;;;;;;;6.65;3.08;;;10.00;99.90;;;;;;5035387;28;20041;-69
2022/02/14 07:10:53;;;;;;;6.13;2.58;;;10.00;99.90;;;;;;5038205;28;20129;-69
2022/02/14 07:13:19;;;;;;;7.30;2.50;;;10.10;99.90;;;;;;5037339;28;20768;-68
2022/02/14 07:15:46;;;;;;;6.13;2.65;;;10.20;99.90;;;;;;5055199;28;20139;-68
2022/02/14 07:18:13;;;;;;;6.18;2.80;;;10.10;99.90;;;;;;5024358;28;20045;-68
2022/02/14 07:20:40;;;;;;;4.95;2.72;;;10.10;99.90;;;;;;5039194;28;20049;-69
2022/02/14 07:23:06;;;;;;;5.57;2.75;;;10.10;99.90;;;;;;5035740;28;20053;-68
2022/02/14 07:25:33;;;;;;;5.47;2.92;;;10.00;99.90;;;;;;5037480;28;20041;-61
2022/02/14 07:27:59;;;;;;;7.70;2.85;;;10.00;99.90;;;;;;5024813;28;20056;-62
2022/02/14 07:30:26;;;;;;;4.93;2.80;;;10.10;99.90;;;;;;5039563;28;20057;-69
2022/02/14 07:32:52;;;;;;;6.45;2.47;;;10.10;99.90;;;;;;5022666;28;20075;-69
2022/02/14 07:35:20;;;;;;;6.20;3.33;;;10.10;99.90;;;;;;5056123;28;20667;-69
2022/02/14 07:37:46;;;;;;;6.25;3.08;;;10.10;99.90;;;;;;5041606;28;20040;-68
2022/02/14 07:40:14;;;;;;;7.30;3.30;;;10.10;99.90;;;;;;5039148;28;20590;-69
2022/02/14 07:42:40;;;;;;;4.50;3.03;;;10.10;99.90;;;;;;5038668;28;20056;-64
2022/02/14 07:45:08;;;;;;;8.07;2.65;;;10.10;99.90;;;;;;5041869;28;20045;-69
2022/02/14 07:47:35;;;;;;;5.47;2.97;;;10.10;99.90;;;;;;5016687;28;20045;-62
2022/02/14 07:50:01;;;;;;;7.47;3.40;;;10.10;99.90;;;;;;5041356;28;20048;-61
2022/02/14 07:52:27;;;;;;;6.07;3.40;;;10.10;99.90;;;;;;5020828;28;20041;-61
2022/02/14 07:54:53;;;;;;;5.22;2.45;;;10.10;99.90;;;;;;5023465;28;20059;-61
2022/02/14 07:57:20;;;;;;;7.50;2.80;;;10.10;99.90;;;;;;5039748;28;20049;-62
2022/02/14 07:59:46;;;;;;;8.00;3.20;;;10.00;99.90;;;;;;5035979;28;20524;-62
2022/02/14 08:02:13;;;;;;;8.30;2.60;;;10.00;99.90;;;;;;5031742;28;20052;-62
2022/02/14 08:04:39;;;;;;;4.75;2.67;;;10.00;99.90;;;;;;5036898;28;20628;-62
2022/02/14 08:07:06;;;;;;;5.32;2.70;;;10.00;99.90;;;;;;5037784;28;20571;-61
2022/02/14 08:09:36;;;;;;;5.28;2.83;;;10.10;99.90;;;;;;5014979;28;20541;-61
2022/02/14 08:12:06;;;;;;;8.18;3.08;;;10.00;99.90;;;;;;5037183;28;20049;-62
2022/02/14 08:14:32;;;;;;;5.32;2.78;;;10.00;99.90;;;;;;5039488;28;20045;-62
2022/02/14 08:16:59;;;;;;;7.53;2.92;;;10.00;99.90;;;;;;5033101;28;20124;-61
2022/02/14 08:19:25;;;;;;;5.95;3.00;;;10.00;99.90;;;;;;5034885;28;20087;-61
2022/02/14 08:21:51;;;;;;;7.10;2.88;;;10.00;99.90;;;;;;5039901;28;20140;-60
2022/02/14 08:24:17;;;;;;;6.47;2.88;;;10.00;99.90;;;;;;5039142;28;20051;-61
2022/02/14 08:26:43;;;;;;;7.47;3.42;;;10.00;99.90;;;;;;5043178;28;20041;-61
2022/02/14 08:29:11;;;;;;;5.20;2.75;;;9.90;99.90;;;;;;5040740;28;20491;-61
2022/02/14 08:31:38;;;;;;;6.07;3.30;;;9.90;99.90;;;;;;5041581;28;20559;-61
2022/02/14 08:34:04;;;;;;;5.90;2.90;;;9.90;99.90;;;;;;5026834;28;20049;-68
2022/02/14 08:36:31;;;;;;;6.07;2.90;;;9.90;99.90;;;;;;5043053;28;20130;-62
2022/02/14 08:38:58;;;;;;;8.00;2.90;;;9.90;99.90;;;;;;5026649;28;20041;-61
2022/02/14 08:41:25;;;;;;;7.68;3.13;;;9.90;99.90;;;;;;5041582;28;20048;-61
2022/02/14 08:43:51;;;;;;;6.45;3.03;;;9.80;99.90;;;;;;5043981;28;20044;-61
2022/02/14 08:46:20;;;;;;;6.70;2.80;;;9.90;99.90;;;;;;4997566;28;20055;-61
2022/02/14 08:48:50;;;;;;;3.33;2.28;;;9.90;99.90;;;;;;5044744;28;20063;-62
2022/02/14 08:51:18;;;;;;;5.20;2.88;;;9.90;99.90;;;;;;5038316;28;20095;-61
2022/02/14 08:53:49;;;;;;;6.05;3.13;;;9.90;99.90;;;;;;5036611;28;20048;-62
2022/02/14 08:56:15;;;;;;;6.72;2.50;;;9.90;99.90;;;;;;5037552;28;20446;-62
2022/02/14 08:58:42;;;;;;;6.28;3.17;;;9.90;99.90;;;;;;5049675;28;20045;-62
2022/02/14 09:01:11;;;;;;;5.80;2.80;;;9.90;99.90;;;;;;5023936;28;20707;-61
2022/02/14 09:03:41;;;;;;;6.97;3.03;;;9.80;99.90;;;;;;4999937;28;20077;-64
2022/02/14 09:06:07;;;;;;;6.78;2.80;;;9.80;99.90;;;;;;5040180;28;20150;-69
2022/02/14 09:08:34;;;;;;;5.93;3.30;;;9.80;99.90;;;;;;5037885;28;20603;-62
2022/02/14 09:11:00;;;;;;;7.95;3.45;;;9.70;99.90;;;;;;5039527;28;20088;-68
2022/02/14 09:13:33;;;;;;;5.47;3.38;;;9.60;99.90;;;;;;5033018;28;20493;-69
2022/02/14 09:16:04;;;;;;;5.45;3.40;;;9.60;99.90;;;;;;5034083;28;20569;-69
2022/02/14 09:18:34;;;;;;;8.82;3.67;;;9.50;99.90;;;;;;5035615;28;20075;-68
2022/02/14 09:21:02;;;;;;;5.20;2.77;;;9.40;99.90;;;;;;5035949;28;20097;-68
2022/02/14 09:23:31;;;;;;;6.28;3.53;;;9.20;99.90;;;;;;5025539;28;20052;-68
2022/02/14 09:25:59;;;;;;;6.82;3.67;;;9.20;99.90;;;;;;5017531;28;20128;-68
2022/02/14 09:28:25;;;;;;;6.47;3.85;;;9.10;99.90;;;;;;5041486;28;20045;-68
2022/02/14 09:30:52;;;;;;;6.47;4.03;;;9.00;99.90;;;;;;5042114;28;20123;-68
2022/02/14 09:33:18;;;;;;;6.38;4.20;;;8.90;99.90;;;;;;5044154;28;20067;-61
2022/02/14 09:35:46;;;;;;;5.80;4.50;;;8.80;99.90;;;;;;5043297;28;20374;-62
2022/02/14 09:38:12;;;;;;;8.40;4.95;;;8.70;99.90;;;;;;5026586;28;20515;-62
2022/02/14 09:40:38;;;;;;;7.43;4.43;;;8.60;99.90;;;;;;5058278;28;20072;-62
2022/02/14 09:43:04;;;;;;;5.65;4.25;;;8.60;99.90;;;;;;5011103;28;20045;-61
2022/02/14 09:45:31;;;;;;;6.35;4.30;;;8.60;99.90;;;;;;5041697;28;20500;-66
2022/02/14 09:48:04;;;;;;;6.70;4.53;;;8.60;99.90;;;;;;5040323;28;20128;-66
2022/02/14 09:50:33;;;;;;;7.78;4.53;;;8.60;99.90;;;;;;5025241;28;20123;-66
2022/02/14 09:53:00;;;;;;;5.90;4.05;;;8.70;99.90;;;;;;5042603;28;20059;-66
2022/02/14 09:55:26;;;;;;;8.65;4.28;;;8.70;99.90;;;;;;5042606;28;20048;-67
2022/02/14 09:57:53;;;;;;;6.18;4.82;;;8.70;99.90;;;;;;5038684;28;20551;-66
2022/02/14 10:00:19;;;;;;;6.80;4.97;;;8.90;99.90;;;;;;5029589;28;20047;-67
2022/02/14 10:02:45;;;;;;;5.38;4.20;;;9.00;99.90;;;;;;5043526;28;20561;-67
2022/02/14 10:05:21;;;;;;;5.68;4.43;;;9.20;99.90;;;;;;5043921;28;20060;-67
2022/02/14 10:07:52;;;;;;;5.72;4.00;;;9.30;99.90;;;;;;5041362;28;20049;-67
2022/02/14 10:10:20;;;;;;;7.13;4.63;;;9.40;99.90;;;;;;5025703;28;20049;-62
2022/02/14 10:12:54;;;;;;;8.05;4.68;;;9.50;99.90;;;;;;5042527;28;20053;-62
2022/02/14 10:15:21;;;;;;;4.95;4.35;;;9.50;99.90;;;;;;5043074;28;20061;-61
2022/02/14 10:17:50;;;;;;;5.20;4.53;;;9.60;99.90;;;;;;5043097;28;20048;-62
2022/02/14 10:20:22;;;;;;;7.25;4.68;;;9.60;99.90;;;;;;5026804;28;20227;-59
2022/02/14 10:22:51;;;;;;;7.38;4.53;;;9.60;99.90;;;;;;5043714;28;20033;-56
2022/02/14 10:25:30;;;;;;;6.25;4.47;;;9.70;99.90;;;;;;5030606;28;20084;-59
2022/02/14 10:28:22;;;;;;;5.70;4.10;;;9.80;99.90;;;;;;5025400;28;20121;-61
2022/02/14 10:30:54;;;;;;;4.25;3.58;;;9.80;99.90;;;;;;5031318;28;20443;-61
2022/02/14 10:33:22;;;;;;;6.32;4.30;;;9.90;99.90;;;;;;5040611;28;20478;-60
2022/02/14 10:35:49;;;;;;;5.50;4.03;;;9.90;99.90;;;;;;5043723;28;20508;-60
2022/02/14 10:38:21;;;;;;;4.72;4.07;;;10.00;99.90;;;;;;5041599;28;20056;-60
2022/02/14 10:40:47;;;;;;;;;;;10.30;99.90;;;;;;5026236;28;20420;-61
2022/02/14 10:43:27;;;;;;;4.70;4.05;;;10.50;99.90;;;;;;5040748;28;19921;-60
2022/02/14 10:45:54;;;;;;;8.18;4.57;;;10.70;99.90;;;;;;5043347;28;20464;-61
2022/02/14 10:48:37;;;;;;;5.18;4.20;;;10.80;99.90;;;;;;5039739;28;20057;-60
2022/02/14 10:51:05;;;;;;;5.00;3.95;;;10.60;99.90;;;;;;5008074;28;20570;-66
2022/02/14 10:53:43;;;;;;;5.70;4.00;;;10.50;99.90;;;;;;5039018;28;20406;-67
2022/02/14 10:56:10;;;;;;;7.78;4.55;;;10.30;99.90;;;;;;5057501;28;20530;-67
2022/02/14 10:58:36;;;;;;;5.43;4.38;;;10.30;99.90;;;;;;5042064;28;20045;-67
2022/02/14 11:01:02;;;;;;;6.10;4.93;;;10.30;99.90;;;;;;5039811;28;20044;-66
2022/02/14 11:03:28;;;;;;;6.50;4.93;;;10.20;99.90;;;;;;5042757;28;20040;-66
2022/02/14 11:05:58;;;;;;;7.55;4.93;;;10.20;99.90;;;;;;5026232;28;20131;-68
2022/02/14 11:08:26;;;;;;;6.53;5.35;;;10.20;99.90;;;;;;5058155;28;20063;-68
2022/02/14 11:10:53;;;;;;;5.03;4.25;;;10.20;99.90;;;;;;5039702;28;20060;-68
2022/02/14 11:13:26;;;;;;;6.55;4.85;;;10.30;99.90;;;;;;5030240;28;20060;-60
2022/02/14 11:15:54;;;;;;;6.38;3.88;;;10.40;99.90;;;;;;5041072;28;20488;-60
2022/02/14 11:18:24;;;;;;;5.13;3.53;;;10.50;99.90;;;;;;5042745;28;20053;-67
2022/02/14 11:20:51;;;;;;;6.57;3.97;;;10.70;99.90;;;;;;5040130;28;20146;-67
2022/02/14 11:23:19;;;;;;;6.68;4.10;;;10.90;99.90;;;;;;5039949;28;20567;-68
2022/02/14 11:26:01;;;;;;;5.72;3.63;;;11.30;99.90;;;;;;5040618;28;20432;-68
2022/02/14 11:28:36;;;;;;;;;;;11.20;99.90;;;;;;5043643;28;20091;-68
2022/02/14 11:31:17;;;;;;;4.28;3.40;;;11.00;99.90;;;;;;5042331;28;20355;-67
2022/02/14 11:33:56;;;;;;;5.03;3.63;;;11.00;99.90;;;;;;5024123;28;20144;-68
2022/02/14 11:36:24;;;;;;;5.35;3.78;;;11.00;99.90;;;;;;5005506;28;20089;-67
2022/02/14 11:38:56;;;;;;;3.78;3.25;;;11.00;99.90;;;;;;5041812;28;20056;-68
2022/02/14 11:41:28;;;;;;;4.68;2.97;;;11.00;99.90;;;;;;5006707;28;20098;-67
2022/02/14 11:44:12;;;;;;;;;;;10.90;99.90;;;;;;5042090;28;20088;-68
2022/02/14 11:46:43;;;;;;;7.18;4.18;;;10.70;99.90;;;;;;5039170;28;19928;-71
2022/02/14 11:49:09;;;;;;;5.80;3.40;;;11.00;99.90;;;;;;5040917;28;20045;-68
2022/02/14 11:51:36;;;;;;;4.82;3.40;;;12.00;99.90;;;;;;5040432;28;20408;-68
2022/02/14 11:54:05;;;;;;;5.13;3.30;;;12.30;99.90;;;;;;5038361;28;20053;-68
2022/02/14 11:56:32;;;;;;;5.95;3.10;;;12.00;99.90;;;;;;5036851;28;20045;-68
2022/02/14 11:59:02;;;;;;;6.97;3.05;;;12.50;99.90;;;;;;5040805;28;20124;-68
2022/02/14 12:01:29;;;;;;;3.72;2.80;;;12.50;99.90;;;;;;5041519;28;20133;-68
2022/02/14 12:04:37;;;;;;;5.35;2.80;;;12.80;99.90;;;;;;5041118;28;20045;-68
2022/02/14 12:07:24;;;;;;;4.25;2.60;;;12.20;99.90;;;;;;5044049;28;20049;-68
2022/02/14 12:09:59;;;;;;;5.00;2.65;;;12.20;99.90;;;;;;5042239;28;20440;-66
2022/02/14 12:12:46;;;;;;;5.85;2.55;;;12.20;99.90;;;;;;5039337;28;20056;-68
2022/02/14 12:21:13;;;;;;;5.47;2.25;;;11.20;99.90;;;;;;5042265;28;20053;-67
2022/02/14 12:23:42;;;;;;;4.22;2.30;;;11.00;99.90;;;;;;5044184;28;20041;-60
2022/02/14 12:26:14;;;;;;;4.13;2.35;;;10.90;99.90;;;;;;5044697;28;20496;-60
2022/02/14 12:28:42;;;;;;;;;;;10.80;99.90;;;;;;5044345;28;20440;-59
2022/02/14 12:31:08;;;;;;;8.07;2.70;;;10.70;99.90;;;;;;5042512;28;20004;-59
2022/02/14 12:33:35;;;;;;;6.05;2.70;;;10.70;99.90;;;;;;5042468;28;21347;-59
2022/02/14 12:36:04;;;;;;;5.15;2.47;;;10.70;99.90;;;;;;5025876;28;20202;-59
2022/02/14 12:38:34;;;;;;;4.90;2.15;;;10.80;99.90;;;;;;5040114;28;20056;-59
2022/02/14 12:41:10;;;;;;;4.93;1.80;;;11.10;99.90;;;;;;5041072;28;20135;-59
2022/02/14 12:43:37;;;;;;;8.18;2.13;;;11.20;99.90;;;;;;5038936;28;20041;-59
2022/02/14 12:46:12;;;;;;;3.95;1.80;;;11.10;99.90;;;;;;5006756;28;20076;-59
2022/02/14 12:48:44;;;;;;;5.88;1.80;;;11.10;99.90;;;;;;5040605;28;20052;-60
2022/02/14 12:51:13;;;;;;;;;;;11.10;99.90;;;;;;5022742;28;20076;-60
2022/02/14 12:53:48;;;;;;;4.25;2.25;;;11.00;99.90;;;;;;5021664;28;20445;-59
2022/02/14 12:56:18;;;;;;;6.10;1.98;;;11.00;99.90;;;;;;5041673;28;20075;-60
2022/02/14 12:58:46;;;;;;;5.50;1.75;;;10.90;99.90;;;;;;5022348;28;20500;-60
2022/02/14 13:01:13;;;;;;;4.65;2.10;;;10.70;99.90;;;;;;5044689;28;20040;-60
2022/02/14 13:03:39;;;;;;;4.75;2.17;;;10.90;99.90;;;;;;5027665;28;20048;-59
2022/02/14 13:06:06;;;;;;;6.13;2.20;;;10.90;99.90;;;;;;5044719;28;20045;-59